This is the latest recevied weather packets stored in our database for station/object W9WRP. If no packets are shown the sender has not sent any weather packets the latest 10 day(s).
| Time | Temp. | Humidity | Pressure | Rain* | Wind** | Luminosity | Snow |
|---|---|---|---|---|---|---|---|
| 1787607378 | 41.67° C | 20% | 1015.5 hPa | 0 mm | - | 589 W/m² | - |
| 1787607075 | 40.56° C | 21% | 1015.5 hPa | 0 mm | - | 598 W/m² | - |
| 1787606774 | 40° C | 21% | 1015.5 hPa | 0 mm | - | 609 W/m² | - |
| 1787606468 | 41.67° C | 21% | 1015.6 hPa | 0 mm | - | 330 W/m² | - |
| 1787606162 | 40.56° C | 21% | 1015.7 hPa | 0 mm | - | 630 W/m² | - |
| 1787605861 | 40.56° C | 21% | 1015.9 hPa | 0 mm | - | 635 W/m² | - |
| 1787605560 | 40.56° C | 21% | 1016 hPa | 0 mm | - | 642 W/m² | - |
| 1787605256 | 40.56° C | 21% | 1015.9 hPa | 0 mm | - | 650 W/m² | - |
| 1787604955 | 40° C | 22% | 1016 hPa | 0 mm | - | 659 W/m² | - |
| 1787604650 | 40° C | 22% | 1016.1 hPa | 0 mm | - | 669 W/m² | - |
| 1787604350 | 40° C | 22% | 1016.2 hPa | 0 mm | - | 670 W/m² | - |
| 1787604044 | 40° C | 22% | 1016.2 hPa | 0 mm | - | 679 W/m² | - |
| 1787603739 | 40° C | 22% | 1016.4 hPa | 0 mm | - | 684 W/m² | - |
| 1787603435 | 40° C | 22% | 1016.4 hPa | 0 mm | - | 691 W/m² | - |
| 1787603131 | 40° C | 22% | 1016.4 hPa | 0 mm | - | 699 W/m² | - |
| 1787602827 | 38.89° C | 23% | 1016.4 hPa | 0 mm | - | 701 W/m² | - |
| 1787602526 | 40° C | 22% | 1016.7 hPa | 0 mm | - | 703 W/m² | - |
| 1787602222 | 38.89° C | 23% | 1016.6 hPa | 0 mm | - | 706 W/m² | - |
| 1787601920 | 38.89° C | 23% | 1016.6 hPa | 0 mm | - | 714 W/m² | - |
| 1787601615 | 38.89° C | 23% | 1016.8 hPa | 0 mm | - | 712 W/m² | - |
| 1787601310 | 38.89° C | 23% | 1017 hPa | 0 mm | - | 718 W/m² | - |
| 1787598189 | 38.33° C | 26% | 1017.8 hPa | 0 mm | - | 702 W/m² | - |
| 1787597885 | 38.33° C | 26% | 1017.8 hPa | 0 mm | - | 702 W/m² | - |
| 1787597584 | 38.33° C | 26% | 1017.9 hPa | 0 mm | - | 702 W/m² | - |
| 1787597283 | 38.89° C | 25% | 1017.9 hPa | 0 mm | - | 709 W/m² | - |
* Rain latest hour (hover to see other rain measurements)
** Current wind speed in m/s (hover to see current wind gust speed)